Time,TemperatureF,DewpointF,PressureIn,WindDirection,WindDirectionDegrees,WindSpeedMPH,WindSpeedGustMPH,Humidity,HourlyPrecipIn,Conditions,Clouds,dailyrainin,SoftwareType,DateUTC
2013-05-18 00:05:00,65.1,62.0,29.97,SW,221,0.0,3.0,88,0.00,,,0.00,weatherlink.com 1.10,2013-05-18 04:05:00,
2013-05-18 00:20:00,65.0,61.0,29.97,SW,221,0.0,1.0,88,0.00,,,0.00,weatherlink.com 1.10,2013-05-18 04:20:00,
2013-05-18 00:35:00,65.1,62.0,29.96,SW,221,0.0,2.0,88,0.00,,,0.00,weatherlink.com 1.10,2013-05-18 04:35:00,
2013-05-18 00:50:00,64.9,61.0,29.96,SW,221,0.0,2.0,88,0.00,,,0.00,weatherlink.com 1.10,2013-05-18 04:50:00,
2013-05-18 01:05:00,65.0,61.0,29.96,SW,221,0.0,1.0,88,0.00,,,0.00,weatherlink.com 1.10,2013-05-18 05:05:00,
2013-05-18 01:20:00,64.7,61.0,29.96,SW,219,0.0,2.0,88,0.00,,,0.00,weatherlink.com 1.10,2013-05-18 05:20:00,
2013-05-18 01:35:00,64.5,61.0,29.96,SW,219,1.0,2.0,89,0.00,,,0.00,weatherlink.com 1.10,2013-05-18 05:35:00,
2013-05-18 01:50:00,64.8,61.0,29.95,SW,219,0.0,1.0,88,0.00,,,0.00,weatherlink.com 1.10,2013-05-18 05:50:00,
2013-05-18 02:05:00,64.3,61.0,29.95,SW,219,0.0,1.0,89,0.00,,,0.00,weatherlink.com 1.10,2013-05-18 06:05:00,
2013-05-18 02:20:00,63.7,61.0,29.95,SW,220,2.0,3.0,90,0.00,,,0.00,weatherlink.com 1.10,2013-05-18 06:20:00,
2013-05-18 02:35:00,63.1,60.0,29.95,SW,220,0.0,2.0,90,0.00,,,0.00,weatherlink.com 1.10,2013-05-18 06:35:00,
2013-05-18 02:50:00,62.6,60.0,29.95,SW,220,1.0,1.0,91,0.00,,,0.00,weatherlink.com 1.10,2013-05-18 06:50:00,
2013-05-18 03:05:00,62.5,60.0,29.95,NNE,22,0.0,4.0,91,0.00,,,0.00,weatherlink.com 1.10,2013-05-18 07:05:00,
2013-05-18 03:20:00,62.0,59.0,29.94,NNE,22,0.0,0.0,91,0.00,,,0.00,weatherlink.com 1.10,2013-05-18 07:20:00,
2013-05-18 03:35:00,61.4,59.0,29.94,NNE,22,0.0,1.0,91,0.00,,,0.00,weatherlink.com 1.10,2013-05-18 07:35:00,
2013-05-18 03:50:00,61.0,59.0,29.95,NNE,22,1.0,2.0,92,0.00,,,0.00,weatherlink.com 1.10,2013-05-18 07:50:00,
2013-05-18 04:05:00,61.0,59.0,29.95,NNE,22,0.0,3.0,92,0.00,,,0.00,weatherlink.com 1.10,2013-05-18 08:05:00,
2013-05-18 04:20:00,60.9,59.0,29.95,ENE,58,0.0,3.0,92,0.00,,,0.00,weatherlink.com 1.10,2013-05-18 08:20:00,
2013-05-18 04:35:00,61.3,59.0,29.95,NE,40,3.0,4.0,92,0.00,,,0.00,weatherlink.com 1.10,2013-05-18 08:35:00,
2013-05-18 04:50:00,62.6,60.0,29.95,NE,36,2.0,4.0,90,0.00,,,0.00,weatherlink.com 1.10,2013-05-18 08:50:00,
2013-05-18 05:05:00,63.2,60.0,29.95,NE,36,0.0,3.0,88,0.00,,,0.00,weatherlink.com 1.10,2013-05-18 09:05:00,
2013-05-18 05:20:00,63.3,60.0,29.95,NE,38,1.0,7.0,88,0.00,,,0.00,weatherlink.com 1.10,2013-05-18 09:20:00,
2013-05-18 05:35:00,63.7,60.0,29.95,ENE,62,0.0,5.0,88,0.00,,,0.00,weatherlink.com 1.10,2013-05-18 09:35:00,
2013-05-18 05:50:00,64.1,60.0,29.95,NE,44,2.0,5.0,87,0.00,,,0.00,weatherlink.com 1.10,2013-05-18 09:50:00,
2013-05-18 06:05:00,63.8,60.0,29.96,NNE,31,2.0,3.0,88,0.00,,,0.00,weatherlink.com 1.10,2013-05-18 10:05:00,
2013-05-18 06:20:00,63.5,61.0,29.96,ENE,61,1.0,2.0,90,0.00,,,0.00,weatherlink.com 1.10,2013-05-18 10:20:00,
2013-05-18 06:35:00,63.4,61.0,29.97,ENE,61,2.0,3.0,91,0.00,,,0.00,weatherlink.com 1.10,2013-05-18 10:35:00,
2013-05-18 06:50:00,63.2,61.0,29.98,ENE,61,0.0,2.0,91,0.00,,,0.00,weatherlink.com 1.10,2013-05-18 10:50:00,
2013-05-18 07:05:00,63.2,61.0,29.98,NE,36,0.0,3.0,92,0.00,,,0.00,weatherlink.com 1.10,2013-05-18 11:05:00,
2013-05-18 07:20:00,63.5,62.0,29.99,NNE,24,0.0,2.0,93,0.00,,,0.00,weatherlink.com 1.10,2013-05-18 11:20:00,
2013-05-18 07:35:00,63.9,62.0,29.99,WNW,292,1.0,2.0,93,0.00,,,0.00,weatherlink.com 1.10,2013-05-18 11:35:00,
2013-05-18 07:50:00,64.0,62.0,29.99,NE,49,2.0,3.0,93,0.00,,,0.00,weatherlink.com 1.10,2013-05-18 11:50:00,
2013-05-18 08:05:00,64.3,62.0,30.00,NE,49,0.0,2.0,93,0.00,,,0.00,weatherlink.com 1.10,2013-05-18 12:05:00,
2013-05-18 08:20:00,64.8,63.0,30.00,NE,49,0.0,0.0,94,0.00,,,0.00,weatherlink.com 1.10,2013-05-18 12:20:00,
2013-05-18 08:35:00,64.9,63.0,30.02,SSE,156,3.0,4.0,93,0.00,,,0.00,weatherlink.com 1.10,2013-05-18 12:35:00,
2013-05-18 08:50:00,64.5,63.0,30.02,SSE,155,0.0,1.0,94,0.03,,,0.03,weatherlink.com 1.10,2013-05-18 12:50:00,
2013-05-18 09:05:00,64.5,63.0,30.02,South,175,0.0,2.0,94,0.06,,,0.06,weatherlink.com 1.10,2013-05-18 13:05:00,
2013-05-18 09:20:00,64.5,63.0,30.02,ESE,116,0.0,2.0,94,0.07,,,0.07,weatherlink.com 1.10,2013-05-18 13:20:00,
2013-05-18 09:35:00,64.7,63.0,30.02,East,82,0.0,2.0,95,0.07,,,0.07,weatherlink.com 1.10,2013-05-18 13:35:00,
2013-05-18 09:50:00,65.0,64.0,30.02,ENE,63,1.0,3.0,95,0.05,,,0.08,weatherlink.com 1.10,2013-05-18 13:50:00,
2013-05-18 10:05:00,65.2,64.0,30.02,East,86,0.0,3.0,95,0.03,,,0.09,weatherlink.com 1.10,2013-05-18 14:05:00,
2013-05-18 10:20:00,65.2,64.0,30.02,NNE,20,2.0,4.0,94,0.03,,,0.10,weatherlink.com 1.10,2013-05-18 14:20:00,
2013-05-18 10:35:00,65.5,64.0,30.02,NNE,20,0.0,2.0,95,0.03,,,0.10,weatherlink.com 1.10,2013-05-18 14:35:00,
2013-05-18 10:50:00,66.1,64.0,30.02,South,174,1.0,3.0,94,0.02,,,0.10,weatherlink.com 1.10,2013-05-18 14:50:00,
2013-05-18 11:05:00,66.1,64.0,30.03,South,171,3.0,5.0,93,0.01,,,0.10,weatherlink.com 1.10,2013-05-18 15:05:00,
2013-05-18 11:20:00,65.7,64.0,30.02,SSE,154,2.0,5.0,93,0.03,,,0.13,weatherlink.com 1.10,2013-05-18 15:20:00,
2013-05-18 11:35:00,65.7,64.0,30.02,South,169,2.0,2.0,94,0.05,,,0.15,weatherlink.com 1.10,2013-05-18 15:35:00,
2013-05-18 11:50:00,65.8,64.0,30.02,SW,221,3.0,3.0,94,0.07,,,0.17,weatherlink.com 1.10,2013-05-18 15:50:00,
2013-05-18 12:05:00,65.9,64.0,30.02,SW,226,1.0,3.0,94,0.12,,,0.22,weatherlink.com 1.10,2013-05-18 16:05:00,
2013-05-18 12:20:00,66.6,65.0,30.01,SW,226,2.0,2.0,95,0.10,,,0.23,weatherlink.com 1.10,2013-05-18 16:20:00,
2013-05-18 12:35:00,66.9,65.0,30.01,SSW,194,1.0,3.0,92,0.08,,,0.23,weatherlink.com 1.10,2013-05-18 16:35:00,
2013-05-18 12:50:00,67.1,65.0,30.00,SSW,206,2.0,5.0,92,0.07,,,0.24,weatherlink.com 1.10,2013-05-18 16:50:00,
2013-05-18 13:05:00,67.4,65.0,30.01,South,174,2.0,3.0,93,0.01,,,0.24,weatherlink.com 1.10,2013-05-18 17:05:00,
2013-05-18 13:21:00,67.7,66.0,30.00,East,101,2.0,2.0,93,0.01,,,0.24,weatherlink.com 1.10,2013-05-18 17:21:00,
2013-05-18 13:36:00,68.0,65.0,30.00,SSE,167,0.0,3.0,90,0.01,,,0.24,weatherlink.com 1.10,2013-05-18 17:36:00,
2013-05-18 13:51:00,68.3,65.0,30.00,South,169,3.0,3.0,90,0.00,,,0.24,weatherlink.com 1.10,2013-05-18 17:51:00,
2013-05-18 14:06:00,68.4,65.0,29.99,SSW,192,2.0,4.0,90,0.00,,,0.24,weatherlink.com 1.10,2013-05-18 18:06:00,
2013-05-18 14:21:00,68.5,66.0,29.99,South,182,2.0,5.0,90,0.00,,,0.24,weatherlink.com 1.10,2013-05-18 18:21:00,
2013-05-18 14:36:00,68.6,66.0,29.98,South,175,0.0,4.0,91,0.00,,,0.24,weatherlink.com 1.10,2013-05-18 18:36:00,
2013-05-18 14:51:00,68.8,66.0,29.98,SSE,148,2.0,5.0,92,0.01,,,0.25,weatherlink.com 1.10,2013-05-18 18:51:00,
2013-05-18 15:06:00,69.3,67.0,29.98,SSW,211,2.0,4.0,91,0.01,,,0.25,weatherlink.com 1.10,2013-05-18 19:06:00,
2013-05-18 15:21:00,69.5,66.0,29.98,NW,316,0.0,4.0,89,0.01,,,0.25,weatherlink.com 1.10,2013-05-18 19:21:00,
2013-05-18 15:36:00,69.0,66.0,29.98,SSW,203,3.0,6.0,89,0.01,,,0.25,weatherlink.com 1.10,2013-05-18 19:36:00,
2013-05-18 15:51:00,69.2,66.0,29.97,SE,146,2.0,4.0,89,0.00,,,0.25,weatherlink.com 1.10,2013-05-18 19:51:00,
2013-05-18 16:06:00,69.5,67.0,29.97,SSE,163,2.0,6.0,90,0.00,,,0.25,weatherlink.com 1.10,2013-05-18 20:06:00,
2013-05-18 16:21:00,69.5,66.0,29.96,ESE,115,4.0,5.0,89,0.00,,,0.25,weatherlink.com 1.10,2013-05-18 20:21:00,
2013-05-18 16:36:00,69.5,66.0,29.96,SW,219,4.0,7.0,87,0.00,,,0.25,weatherlink.com 1.10,2013-05-18 20:36:00,
2013-05-18 16:51:00,69.6,66.0,29.96,SE,140,2.0,4.0,87,0.00,,,0.25,weatherlink.com 1.10,2013-05-18 20:51:00,
2013-05-18 17:06:00,69.7,66.0,29.95,SE,128,1.0,6.0,88,0.00,,,0.25,weatherlink.com 1.10,2013-05-18 21:06:00,
2013-05-18 17:21:00,69.7,66.0,29.95,East,79,0.0,5.0,89,0.00,,,0.25,weatherlink.com 1.10,2013-05-18 21:21:00,
2013-05-18 17:36:00,70.1,66.0,29.95,SSW,196,3.0,4.0,86,0.00,,,0.25,weatherlink.com 1.10,2013-05-18 21:36:00,
2013-05-18 17:51:00,70.2,67.0,29.95,ENE,74,2.0,5.0,88,0.00,,,0.25,weatherlink.com 1.10,2013-05-18 21:51:00,
2013-05-18 18:06:00,70.4,67.0,29.95,SSE,153,1.0,3.0,88,0.00,,,0.25,weatherlink.com 1.10,2013-05-18 22:06:00,
2013-05-18 18:21:00,69.8,66.0,29.96,East,95,3.0,7.0,87,0.00,,,0.25,weatherlink.com 1.10,2013-05-18 22:21:00,
2013-05-18 18:36:00,69.5,66.0,29.96,SSE,153,2.0,4.0,88,0.00,,,0.25,weatherlink.com 1.10,2013-05-18 22:36:00,
2013-05-18 18:51:00,69.3,66.0,29.96,SSE,159,2.0,4.0,88,0.00,,,0.25,weatherlink.com 1.10,2013-05-18 22:51:00,
2013-05-18 19:06:00,68.7,65.0,29.96,East,92,0.0,6.0,89,0.00,,,0.25,weatherlink.com 1.10,2013-05-18 23:06:00,
2013-05-18 19:21:00,68.3,65.0,29.97,SE,142,0.0,8.0,89,0.00,,,0.25,weatherlink.com 1.10,2013-05-18 23:21:00,
2013-05-18 19:36:00,68.0,65.0,29.97,SE,131,1.0,3.0,89,0.00,,,0.25,weatherlink.com 1.10,2013-05-18 23:36:00,
2013-05-18 19:51:00,67.9,65.0,29.97,SE,130,1.0,4.0,89,0.00,,,0.25,weatherlink.com 1.10,2013-05-18 23:51:00,
2013-05-18 20:06:00,67.9,64.0,29.97,SW,216,1.0,4.0,88,0.00,,,0.25,weatherlink.com 1.10,2013-05-19 00:06:00,
2013-05-18 20:21:00,67.8,65.0,29.97,SE,141,0.0,5.0,89,0.00,,,0.25,weatherlink.com 1.10,2013-05-19 00:21:00,
2013-05-18 20:36:00,67.5,65.0,29.97,ESE,117,1.0,2.0,90,0.00,,,0.25,weatherlink.com 1.10,2013-05-19 00:36:00,
2013-05-18 20:51:00,67.5,65.0,29.98,ESE,117,1.0,3.0,91,0.00,,,0.25,weatherlink.com 1.10,2013-05-19 00:51:00,
2013-05-18 21:06:00,67.5,65.0,29.97,East,81,2.0,2.0,91,0.00,,,0.25,weatherlink.com 1.10,2013-05-19 01:06:00,
2013-05-18 21:21:00,67.6,65.0,29.98,ENE,69,0.0,7.0,92,0.00,,,0.25,weatherlink.com 1.10,2013-05-19 01:21:00,
2013-05-18 21:36:00,67.6,65.0,29.98,North,9,2.0,3.0,92,0.00,,,0.25,weatherlink.com 1.10,2013-05-19 01:36:00,
2013-05-18 21:51:00,67.5,65.0,29.98,NNW,348,1.0,2.0,92,0.00,,,0.25,weatherlink.com 1.10,2013-05-19 01:51:00,
2013-05-18 22:06:00,67.4,65.0,29.98,NE,45,0.0,3.0,93,0.00,,,0.25,weatherlink.com 1.10,2013-05-19 02:06:00,
2013-05-18 22:21:00,67.6,66.0,29.98,SSE,165,2.0,5.0,93,0.00,,,0.25,weatherlink.com 1.10,2013-05-19 02:21:00,
2013-05-18 22:36:00,67.7,66.0,29.98,SW,214,1.0,4.0,93,0.00,,,0.25,weatherlink.com 1.10,2013-05-19 02:36:00,
2013-05-18 22:51:00,67.6,66.0,29.98,SSW,211,0.0,3.0,93,0.00,,,0.25,weatherlink.com 1.10,2013-05-19 02:51:00,
2013-05-18 23:06:00,67.5,66.0,29.98,SW,227,1.0,5.0,94,0.00,,,0.25,weatherlink.com 1.10,2013-05-19 03:06:00,
2013-05-18 23:21:00,67.3,66.0,29.97,SSE,154,1.0,3.0,94,0.00,,,0.25,weatherlink.com 1.10,2013-05-19 03:21:00,
2013-05-18 23:36:00,67.2,66.0,29.98,SW,236,0.0,4.0,94,0.00,,,0.25,weatherlink.com 1.10,2013-05-19 03:36:00,
2013-05-18 23:51:00,67.2,66.0,29.98,SW,216,5.0,6.0,94,0.00,,,0.25,weatherlink.com 1.10,2013-05-19 03:51:00,